KLJF

Litchfield Municipal Airport

Litchfield, Minnesota, USA
METAR KLJF 260315Z AUTO 22003KT 10SM CLR M08/M09 A2992 RMK AO2
Observed Flight Rules
Feb-26 @ 03:15 UTC (17 minutes ago) Visual Flight Rules
Wind Visibility Clouds
220° at 3 knots 10 miles
  • Clear skies
Temperatures Readings
Current -8°C / 18°F
Dewpoint -9°C / 16°F
Humidity 93%
Altimeter 29.92" Hg
Pressure 1013 hPa
Elevation 348
METAR KLJF 260315Z AUTO 22003KT 10SM CLR M08/M09 A2992 RMK AO2
Observed Flight Rules
Feb-26 @ 03:15 UTC
(17 minutes ago)
VFR
Wind Visibility
220° at 3 knots 10 miles
Clouds
  • Clear skies
Temperature Dewpoint
-8°C / 18°F -9°C / 16°F
Humidity Altimeter Pressure
93% 29.92" Hg 1013 hPa